createdAt,value
2019-02-14T00:00:21.478Z,828.60
2019-02-14T00:01:21.487Z,828.63
2019-02-14T00:02:21.503Z,828.65
2019-02-14T00:03:21.504Z,828.57
2019-02-14T00:04:21.516Z,828.61
2019-02-14T00:05:21.522Z,828.65
2019-02-14T00:06:21.528Z,828.58
2019-02-14T00:07:21.540Z,828.62
2019-02-14T00:08:21.547Z,828.60
2019-02-14T00:09:21.557Z,828.61
2019-02-14T00:10:21.567Z,828.60
2019-02-14T00:11:21.572Z,828.62
2019-02-14T00:12:21.581Z,828.64
2019-02-14T00:13:21.589Z,828.64
2019-02-14T00:14:21.597Z,828.61
2019-02-14T00:15:21.608Z,828.62
2019-02-14T00:16:21.613Z,828.61
2019-02-14T00:17:21.621Z,828.58
2019-02-14T00:18:21.629Z,828.56
2019-02-14T00:19:21.640Z,828.60
2019-02-14T00:20:21.648Z,828.60
2019-02-14T00:21:21.655Z,828.55
2019-02-14T00:22:21.663Z,828.57
2019-02-14T00:23:21.672Z,828.56
2019-02-14T00:24:21.681Z,828.58
2019-02-14T00:25:21.692Z,828.55
2019-02-14T00:26:21.696Z,828.55
2019-02-14T00:27:21.706Z,828.58
2019-02-14T00:28:21.714Z,828.55
2019-02-14T00:29:21.726Z,828.59
2019-02-14T00:30:21.732Z,828.61
2019-02-14T00:31:21.743Z,828.55
2019-02-14T00:32:21.751Z,828.58
2019-02-14T00:33:21.760Z,828.57
2019-02-14T00:34:21.764Z,828.55
2019-02-14T00:35:25.102Z,828.57
2019-02-14T00:36:21.785Z,828.51
2019-02-14T00:37:21.790Z,828.55
2019-02-14T00:38:21.803Z,828.50
2019-02-14T00:39:21.807Z,828.51
2019-02-14T00:40:21.815Z,828.51
2019-02-14T00:41:21.825Z,828.49
2019-02-14T00:42:21.836Z,828.51
2019-02-14T00:43:21.843Z,828.50
2019-02-14T00:44:21.850Z,828.48
2019-02-14T00:45:21.858Z,828.50
2019-02-14T00:46:21.867Z,828.51
2019-02-14T00:47:21.875Z,828.45
2019-02-14T00:48:21.885Z,828.53
2019-02-14T00:49:21.892Z,828.42
2019-02-14T00:50:21.905Z,828.45
2019-02-14T00:51:21.909Z,828.50
2019-02-14T00:52:21.918Z,828.44
2019-02-14T00:53:21.927Z,828.50
2019-02-14T00:54:21.936Z,828.45
2019-02-14T00:55:21.945Z,828.42
2019-02-14T00:56:21.951Z,828.45
2019-02-14T00:57:21.959Z,828.45
2019-02-14T00:58:21.967Z,828.47
2019-02-14T00:59:21.978Z,828.46
2019-02-14T01:00:21.985Z,828.47
2019-02-14T01:01:21.999Z,828.43
2019-02-14T01:02:22.004Z,828.46
2019-02-14T01:03:22.011Z,828.44
2019-02-14T01:04:22.019Z,828.45
2019-02-14T01:05:22.029Z,828.48
2019-02-14T01:06:22.039Z,828.47
2019-02-14T01:07:22.043Z,828.48
2019-02-14T01:08:22.057Z,828.48
2019-02-14T01:09:22.061Z,828.44
2019-02-14T01:10:22.070Z,828.47
2019-02-14T01:11:22.080Z,828.48
2019-02-14T01:12:22.089Z,828.45
2019-02-14T01:13:22.096Z,828.47
2019-02-14T01:14:22.103Z,828.47
2019-02-14T01:15:22.111Z,828.48
2019-02-14T01:16:22.120Z,828.49
2019-02-14T01:17:22.130Z,828.46
2019-02-14T01:18:22.139Z,828.46
2019-02-14T01:19:22.146Z,828.46
2019-02-14T01:20:22.156Z,828.48
2019-02-14T01:21:22.163Z,828.46
2019-02-14T01:22:22.169Z,828.49
2019-02-14T01:23:22.183Z,828.47
2019-02-14T01:24:22.186Z,828.51
2019-02-14T01:25:22.201Z,828.51
2019-02-14T01:26:22.203Z,828.51
2019-02-14T01:27:22.216Z,828.49
2019-02-14T01:28:22.219Z,828.50
2019-02-14T01:29:22.228Z,828.48
2019-02-14T01:30:22.237Z,828.47
2019-02-14T01:31:22.245Z,828.50
2019-02-14T01:32:22.255Z,828.50
2019-02-14T01:33:22.263Z,828.51
2019-02-14T01:34:22.269Z,828.49
2019-02-14T01:35:22.278Z,828.49
2019-02-14T01:36:22.288Z,828.49
2019-02-14T01:37:22.295Z,828.51
2019-02-14T01:38:22.305Z,828.53
2019-02-14T01:39:22.313Z,828.52
2019-02-14T01:40:22.327Z,828.52
2019-02-14T01:41:22.328Z,828.50
2019-02-14T01:42:22.338Z,828.52
2019-02-14T01:43:22.346Z,828.46
2019-02-14T01:44:22.354Z,828.47
2019-02-14T01:45:22.363Z,828.52
2019-02-14T01:46:22.370Z,828.49
2019-02-14T01:47:22.387Z,828.52
2019-02-14T01:48:22.387Z,828.50
2019-02-14T01:49:22.398Z,828.50
2019-02-14T01:50:22.405Z,828.45
2019-02-14T01:51:22.414Z,828.49
2019-02-14T01:52:22.420Z,828.48
2019-02-14T01:53:22.430Z,828.47
2019-02-14T01:54:22.435Z,828.48
2019-02-14T01:55:22.444Z,828.46
2019-02-14T01:56:22.453Z,828.47
2019-02-14T01:57:22.462Z,828.43
2019-02-14T01:58:22.470Z,828.45
2019-02-14T01:59:22.479Z,828.48
2019-02-14T02:00:22.485Z,828.42
2019-02-14T02:01:22.493Z,828.41
2019-02-14T02:02:22.504Z,828.45
2019-02-14T02:03:22.510Z,828.43
2019-02-14T02:04:22.524Z,828.42
2019-02-14T02:05:22.529Z,828.41
2019-02-14T02:06:22.535Z,828.45
2019-02-14T02:07:22.545Z,828.45
2019-02-14T02:08:22.550Z,828.44
2019-02-14T02:09:22.561Z,828.44
2019-02-14T02:10:22.569Z,828.50
2019-02-14T02:11:22.576Z,828.47
2019-02-14T02:12:22.582Z,828.52
2019-02-14T02:13:22.593Z,828.51
2019-02-14T02:14:22.602Z,828.50
2019-02-14T02:15:22.606Z,828.48
2019-02-14T02:16:22.613Z,828.51
2019-02-14T02:17:22.627Z,828.52
2019-02-14T02:18:22.632Z,828.52
2019-02-14T02:19:22.642Z,828.54
2019-02-14T02:20:22.651Z,828.50
2019-02-14T02:21:22.678Z,828.53
2019-02-14T02:22:22.666Z,828.52
2019-02-14T02:23:22.674Z,828.51
2019-02-14T02:24:22.683Z,828.52
2019-02-14T02:25:22.689Z,828.53
2019-02-14T02:26:22.698Z,828.57
2019-02-14T02:27:22.707Z,828.55
2019-02-14T02:28:22.722Z,828.51
2019-02-14T02:29:22.721Z,828.53
2019-02-14T02:30:22.732Z,828.54
2019-02-14T02:31:22.737Z,828.54
2019-02-14T02:32:22.749Z,828.52
2019-02-14T02:33:22.757Z,828.50
2019-02-14T02:34:22.765Z,828.52
2019-02-14T02:35:22.772Z,828.50
2019-02-14T02:36:22.778Z,828.53
2019-02-14T02:37:22.831Z,828.52
2019-02-14T02:38:22.798Z,828.50
2019-02-14T02:39:22.801Z,828.54
2019-02-14T02:40:22.813Z,828.50
2019-02-14T02:41:22.818Z,828.50
2019-02-14T02:42:22.830Z,828.48
2019-02-14T02:43:22.836Z,828.48
2019-02-14T02:44:22.843Z,828.44
2019-02-14T02:45:22.862Z,828.49
2019-02-14T02:46:22.858Z,828.48
2019-02-14T02:47:22.911Z,828.52
2019-02-14T02:48:22.876Z,828.49
2019-02-14T02:49:22.885Z,828.48
2019-02-14T02:50:22.891Z,828.53
2019-02-14T02:51:22.907Z,828.49
2019-02-14T02:52:22.908Z,828.50
2019-02-14T02:53:22.918Z,828.48
2019-02-14T02:54:22.926Z,828.50
2019-02-14T02:55:22.932Z,828.53
2019-02-14T02:56:22.944Z,828.50
2019-02-14T02:57:22.950Z,828.49
2019-02-14T02:58:22.961Z,828.50
2019-02-14T02:59:22.966Z,828.48
2019-02-14T03:00:22.975Z,828.52
2019-02-14T03:01:22.983Z,828.46
2019-02-14T03:02:22.996Z,828.51
2019-02-14T03:03:22.996Z,828.50
2019-02-14T03:04:23.005Z,828.49
2019-02-14T03:05:23.016Z,828.51
2019-02-14T03:06:23.020Z,828.47
2019-02-14T03:07:23.029Z,828.46
2019-02-14T03:08:23.036Z,828.48
2019-02-14T03:09:23.045Z,828.50
2019-02-14T03:10:23.067Z,828.46
2019-02-14T03:11:23.064Z,828.48
2019-02-14T03:12:23.074Z,828.48
2019-02-14T03:13:23.077Z,828.46
2019-02-14T03:14:23.084Z,828.47
2019-02-14T03:15:23.095Z,828.47
2019-02-14T03:16:23.103Z,828.46
2019-02-14T03:17:23.112Z,828.50
2019-02-14T03:18:23.117Z,828.48
2019-02-14T03:19:23.125Z,828.48
2019-02-14T03:20:23.137Z,828.52
2019-02-14T03:21:23.142Z,828.49
2019-02-14T03:22:23.150Z,828.48
2019-02-14T03:23:23.157Z,828.50
2019-02-14T03:24:23.167Z,828.52
2019-02-14T03:25:23.176Z,828.50
2019-02-14T03:26:23.183Z,828.50
2019-02-14T03:27:23.190Z,828.52
2019-02-14T03:28:23.200Z,828.51
2019-02-14T03:29:23.212Z,828.52
2019-02-14T03:30:23.216Z,828.49
2019-02-14T03:31:23.223Z,828.50
2019-02-14T03:32:23.231Z,828.50
2019-02-14T03:33:23.239Z,828.52
2019-02-14T03:34:23.248Z,828.54
2019-02-14T03:35:23.255Z,828.51
2019-02-14T03:36:23.261Z,828.51
2019-02-14T03:37:23.270Z,828.54
2019-02-14T03:38:23.277Z,828.52
2019-02-14T03:39:23.285Z,828.49
2019-02-14T03:40:23.297Z,828.50
2019-02-14T03:41:23.301Z,828.52
2019-02-14T03:42:23.308Z,828.49
2019-02-14T03:43:23.322Z,828.52
2019-02-14T03:44:23.326Z,828.51
2019-02-14T03:45:23.334Z,828.54
2019-02-14T03:46:23.343Z,828.51
2019-02-14T03:47:23.351Z,828.57
2019-02-14T03:48:23.358Z,828.56
2019-02-14T03:49:23.367Z,828.54
2019-02-14T03:50:23.372Z,828.58
2019-02-14T03:51:23.381Z,828.59
2019-02-14T03:52:23.391Z,828.56
2019-02-14T03:53:23.403Z,828.56
2019-02-14T03:54:23.407Z,828.58
2019-02-14T03:55:23.419Z,828.57
2019-02-14T03:56:23.420Z,828.57
2019-02-14T03:57:23.430Z,828.56
2019-02-14T03:58:23.438Z,828.60
2019-02-14T03:59:23.446Z,828.59
2019-02-14T04:00:23.453Z,828.58
2019-02-14T04:01:23.461Z,828.59
2019-02-14T04:02:23.469Z,828.60
2019-02-14T04:03:23.476Z,828.58
2019-02-14T04:04:23.484Z,828.60
2019-02-14T04:05:23.493Z,828.59
2019-02-14T04:06:27.521Z,828.62
2019-02-14T04:07:23.510Z,828.62
2019-02-14T04:08:23.517Z,828.62
2019-02-14T04:09:23.525Z,828.64
2019-02-14T04:10:23.534Z,828.62
2019-02-14T04:11:23.544Z,828.66
2019-02-14T04:12:23.553Z,828.68
2019-02-14T04:13:23.561Z,828.69
2019-02-14T04:14:23.562Z,828.73
2019-02-14T04:15:23.577Z,828.69
2019-02-14T04:16:23.585Z,828.67
2019-02-14T04:17:23.589Z,828.71
2019-02-14T04:18:23.595Z,828.72
2019-02-14T04:19:23.606Z,828.74
2019-02-14T04:20:23.614Z,828.74
2019-02-14T04:21:23.621Z,828.75
2019-02-14T04:22:23.629Z,828.76
2019-02-14T04:23:23.636Z,828.76
2019-02-14T04:24:23.643Z,828.78
2019-02-14T04:25:23.653Z,828.77
2019-02-14T04:26:23.660Z,828.77
2019-02-14T04:27:23.675Z,828.79
2019-02-14T04:28:23.679Z,828.74
2019-02-14T04:29:23.682Z,828.76
2019-02-14T04:30:23.694Z,828.74
2019-02-14T04:31:23.698Z,828.71
2019-02-14T04:32:23.708Z,828.70
2019-02-14T04:33:23.716Z,828.73
2019-02-14T04:34:23.721Z,828.77
2019-02-14T04:35:23.731Z,828.77
2019-02-14T04:36:23.737Z,828.80
2019-02-14T04:37:23.746Z,828.76
2019-02-14T04:38:23.754Z,828.80
2019-02-14T04:39:23.764Z,828.78
2019-02-14T04:40:23.778Z,828.77
2019-02-14T04:41:23.776Z,828.76
2019-02-14T04:42:23.788Z,828.78
2019-02-14T04:43:23.795Z,828.78
2019-02-14T04:44:23.801Z,828.79
2019-02-14T04:45:23.812Z,828.84
2019-02-14T04:46:23.819Z,828.80
2019-02-14T04:47:23.824Z,828.79
2019-02-14T04:48:23.834Z,828.77
2019-02-14T04:49:23.843Z,828.82
2019-02-14T04:50:23.848Z,828.79
2019-02-14T04:51:23.860Z,828.79
2019-02-14T04:52:23.865Z,828.80
2019-02-14T04:53:23.915Z,828.77
2019-02-14T04:54:23.878Z,828.80
2019-02-14T04:55:23.886Z,828.77
2019-02-14T04:56:23.896Z,828.77
2019-02-14T04:57:23.905Z,828.75
2019-02-14T04:58:23.909Z,828.75
2019-02-14T04:59:23.919Z,828.75
2019-02-14T05:00:23.926Z,828.77
2019-02-14T05:01:23.936Z,828.75
2019-02-14T05:02:23.940Z,828.74
2019-02-14T05:03:23.950Z,828.76
2019-02-14T05:04:23.958Z,828.78
2019-02-14T05:05:23.968Z,828.75
2019-02-14T05:06:23.972Z,828.76
2019-02-14T05:07:23.980Z,828.77
2019-02-14T05:08:23.989Z,828.76
2019-02-14T05:09:23.996Z,828.75
2019-02-14T05:10:24.004Z,828.78
2019-02-14T05:11:24.012Z,828.78
2019-02-14T05:12:24.019Z,828.80
2019-02-14T05:13:24.029Z,828.74
2019-02-14T05:14:24.035Z,828.74
2019-02-14T05:15:24.043Z,828.77
2019-02-14T05:16:24.050Z,828.74
2019-02-14T05:17:24.061Z,828.76
2019-02-14T05:18:24.066Z,828.74
2019-02-14T05:19:24.074Z,828.75
2019-02-14T05:20:24.082Z,828.75
2019-02-14T05:21:24.091Z,828.77
2019-02-14T05:22:24.098Z,828.72
2019-02-14T05:23:24.105Z,828.70
2019-02-14T05:24:24.114Z,828.75
2019-02-14T05:25:24.122Z,828.72
2019-02-14T05:26:24.132Z,828.76
2019-02-14T05:27:24.140Z,828.73
2019-02-14T05:28:24.150Z,828.70
2019-02-14T05:29:24.154Z,828.72
2019-02-14T05:30:24.159Z,828.72
2019-02-14T05:31:24.168Z,828.75
2019-02-14T05:32:24.177Z,828.75
2019-02-14T05:33:24.186Z,828.73
2019-02-14T05:34:24.193Z,828.75
2019-02-14T05:35:24.202Z,828.71
2019-02-14T05:36:24.209Z,828.74
2019-02-14T05:37:24.222Z,828.73
2019-02-14T05:38:24.223Z,828.76
2019-02-14T05:39:24.230Z,828.73
2019-02-14T05:40:24.238Z,828.74
2019-02-14T05:41:24.249Z,828.68
2019-02-14T05:42:25.142Z,828.76
2019-02-14T05:43:24.264Z,828.72
2019-02-14T05:44:24.270Z,828.73
2019-02-14T05:45:24.281Z,828.74
2019-02-14T05:46:24.285Z,828.72
2019-02-14T05:47:24.295Z,828.74
2019-02-14T05:48:24.301Z,828.74
2019-02-14T05:49:24.318Z,828.76
2019-02-14T05:50:24.317Z,828.75
2019-02-14T05:51:24.324Z,828.75
2019-02-14T05:52:24.335Z,828.73
2019-02-14T05:53:24.370Z,828.75
2019-02-14T05:54:24.353Z,828.75
2019-02-14T05:55:24.358Z,828.72
2019-02-14T05:56:24.368Z,828.70
2019-02-14T05:57:24.377Z,828.74
2019-02-14T05:58:24.380Z,828.72
2019-02-14T05:59:24.388Z,828.73
2019-02-14T06:00:24.395Z,828.72
2019-02-14T06:01:24.404Z,828.73
2019-02-14T06:02:24.414Z,828.70
2019-02-14T06:03:24.442Z,828.73
2019-02-14T06:04:24.429Z,828.73
2019-02-14T06:05:24.434Z,828.74
2019-02-14T06:06:24.440Z,828.75
2019-02-14T06:07:24.449Z,828.73
2019-02-14T06:08:24.462Z,828.77
2019-02-14T06:09:24.469Z,828.74
2019-02-14T06:10:24.472Z,828.72
2019-02-14T06:11:24.481Z,828.70
2019-02-14T06:12:24.488Z,828.68
2019-02-14T06:13:24.497Z,828.71
2019-02-14T06:14:24.507Z,828.66
2019-02-14T06:15:24.512Z,828.72
2019-02-14T06:16:24.523Z,828.70
2019-02-14T06:17:24.528Z,828.68
2019-02-14T06:18:24.549Z,828.72
2019-02-14T06:19:24.543Z,828.73
2019-02-14T06:20:24.555Z,828.72
2019-02-14T06:21:24.560Z,828.73
2019-02-14T06:22:24.567Z,828.74
2019-02-14T06:23:24.575Z,828.75
2019-02-14T06:24:24.586Z,828.74
2019-02-14T06:25:24.592Z,828.74
2019-02-14T06:26:24.597Z,828.79
2019-02-14T06:27:24.612Z,828.77
2019-02-14T06:28:24.615Z,828.78
2019-02-14T06:29:24.622Z,828.77
2019-02-14T06:30:24.629Z,828.73
2019-02-14T06:31:24.640Z,828.77
2019-02-14T06:32:24.647Z,828.75
2019-02-14T06:33:24.654Z,828.78
2019-02-14T06:34:24.660Z,828.78
2019-02-14T06:35:24.669Z,828.79
2019-02-14T06:36:24.679Z,828.83
2019-02-14T06:37:24.685Z,828.80
2019-02-14T06:38:24.691Z,828.83
2019-02-14T06:39:24.700Z,828.85
2019-02-14T06:40:24.707Z,828.86
2019-02-14T06:41:24.716Z,828.81
2019-02-14T06:42:24.724Z,828.82
2019-02-14T06:43:24.730Z,828.85
2019-02-14T06:44:24.740Z,828.87
2019-02-14T06:45:24.747Z,828.85
2019-02-14T06:46:24.757Z,828.86
2019-02-14T06:47:24.764Z,828.86
2019-02-14T06:48:24.775Z,828.88
2019-02-14T06:49:24.783Z,828.87
2019-02-14T06:50:24.790Z,828.91
2019-02-14T06:51:24.793Z,828.93
2019-02-14T06:52:24.803Z,828.92
2019-02-14T06:53:24.810Z,828.92
2019-02-14T06:54:24.817Z,828.92
2019-02-14T06:55:24.829Z,828.90
2019-02-14T06:56:24.833Z,828.95
2019-02-14T06:57:24.841Z,828.95
2019-02-14T06:58:24.853Z,828.94
2019-02-14T06:59:24.857Z,828.92
2019-02-14T07:00:24.864Z,828.93
2019-02-14T07:01:24.873Z,828.93
2019-02-14T07:02:24.882Z,828.96
2019-02-14T07:03:24.889Z,828.94
2019-02-14T07:04:24.897Z,828.94
2019-02-14T07:05:24.908Z,828.94
2019-02-14T07:06:24.911Z,828.93
2019-02-14T07:07:24.919Z,828.92
2019-02-14T07:08:24.927Z,828.94
2019-02-14T07:09:24.937Z,828.94
2019-02-14T07:10:24.944Z,828.94
2019-02-14T07:11:24.953Z,828.95
2019-02-14T07:12:24.959Z,828.92
2019-02-14T07:13:24.967Z,828.98
2019-02-14T07:14:24.976Z,828.94
2019-02-14T07:15:24.982Z,828.96
2019-02-14T07:16:24.990Z,828.96
2019-02-14T07:17:25.000Z,828.92
2019-02-14T07:18:25.011Z,828.90
2019-02-14T07:19:25.015Z,828.96
2019-02-14T07:20:25.023Z,828.94
2019-02-14T07:21:25.033Z,828.95
2019-02-14T07:22:25.041Z,828.96
2019-02-14T07:23:25.049Z,828.95
2019-02-14T07:24:25.055Z,828.97
2019-02-14T07:25:25.063Z,828.94
2019-02-14T07:26:25.068Z,828.96
2019-02-14T07:27:25.077Z,828.95
2019-02-14T07:28:25.084Z,828.97
2019-02-14T07:29:25.112Z,828.97
2019-02-14T07:30:25.103Z,829.00
2019-02-14T07:31:25.122Z,829.02
2019-02-14T07:32:25.118Z,829.03
2019-02-14T07:33:25.127Z,829.04
2019-02-14T07:34:25.135Z,829.05
2019-02-14T07:35:25.140Z,829.05
2019-02-14T07:36:25.164Z,829.04
2019-02-14T07:37:27.061Z,829.06
2019-02-14T07:38:25.162Z,829.08
2019-02-14T07:39:25.187Z,829.08
2019-02-14T07:40:25.181Z,829.07
2019-02-14T07:41:25.186Z,829.08
2019-02-14T07:42:25.195Z,829.06
2019-02-14T07:43:25.207Z,829.08
2019-02-14T07:44:25.211Z,829.07
2019-02-14T07:45:25.221Z,829.07
2019-02-14T07:46:25.226Z,829.05
2019-02-14T07:47:25.238Z,829.05
2019-02-14T07:48:25.246Z,829.08
2019-02-14T07:49:25.253Z,829.07
2019-02-14T07:50:25.257Z,829.07
2019-02-14T07:51:25.265Z,829.10
2019-02-14T07:52:25.501Z,829.10
2019-02-14T07:53:25.289Z,829.13
2019-02-14T07:54:25.288Z,829.11
2019-02-14T07:55:25.297Z,829.11
2019-02-14T07:56:25.304Z,829.12
2019-02-14T07:57:25.312Z,829.16
2019-02-14T07:58:25.320Z,829.13
2019-02-14T07:59:25.329Z,829.14
2019-02-14T08:00:25.336Z,829.14
2019-02-14T08:01:25.348Z,829.18
2019-02-14T08:02:25.354Z,829.18
2019-02-14T08:03:25.368Z,829.18
2019-02-14T08:04:25.369Z,829.17
2019-02-14T08:05:25.383Z,829.17
2019-02-14T08:06:25.391Z,829.17
2019-02-14T08:07:25.400Z,829.14
2019-02-14T08:08:25.426Z,829.12
2019-02-14T08:09:25.409Z,829.14
2019-02-14T08:10:25.416Z,829.13
2019-02-14T08:11:25.424Z,829.14
2019-02-14T08:12:25.434Z,829.13
2019-02-14T08:13:25.781Z,829.13
2019-02-14T08:14:25.447Z,829.15
2019-02-14T08:15:25.460Z,829.14
2019-02-14T08:16:25.468Z,829.16
2019-02-14T08:17:25.525Z,829.18
2019-02-14T08:18:25.484Z,829.22
2019-02-14T08:19:25.491Z,829.15
2019-02-14T08:20:25.505Z,829.15
2019-02-14T08:21:25.507Z,829.19
2019-02-14T08:22:25.516Z,829.17
2019-02-14T08:23:25.523Z,829.16
2019-02-14T08:24:25.534Z,829.18
2019-02-14T08:25:25.540Z,829.18
2019-02-14T08:26:25.550Z,829.20
2019-02-14T08:27:25.562Z,829.17
2019-02-14T08:28:25.570Z,829.14
2019-02-14T08:29:25.574Z,829.14
2019-02-14T08:30:25.586Z,829.17
2019-02-14T08:31:25.594Z,829.20
2019-02-14T08:32:25.604Z,829.18
2019-02-14T08:33:25.611Z,829.19
2019-02-14T08:34:25.621Z,829.18
2019-02-14T08:35:25.630Z,829.17
2019-02-14T08:36:25.637Z,829.18
2019-02-14T08:37:25.649Z,829.19
2019-02-14T08:38:25.658Z,829.20
2019-02-14T08:39:25.664Z,829.20
2019-02-14T08:40:25.678Z,829.15
2019-02-14T08:41:25.683Z,829.12
2019-02-14T08:42:25.694Z,829.12
2019-02-14T08:43:25.706Z,829.15
2019-02-14T08:44:25.711Z,829.16
2019-02-14T08:45:25.724Z,829.14
2019-02-14T08:46:25.732Z,829.13
2019-02-14T08:47:25.741Z,829.12
2019-02-14T08:48:25.749Z,829.16
2019-02-14T08:49:25.765Z,829.15
2019-02-14T08:50:25.769Z,829.20
2019-02-14T08:51:25.779Z,829.20
2019-02-14T08:52:25.792Z,829.22
2019-02-14T08:53:25.799Z,829.22
2019-02-14T08:54:25.810Z,829.19
2019-02-14T08:55:25.821Z,829.20
2019-02-14T08:56:25.831Z,829.22
2019-02-14T08:57:25.845Z,829.20
2019-02-14T08:58:25.851Z,829.25
2019-02-14T08:59:25.859Z,829.21
2019-02-14T09:00:25.873Z,829.18
2019-02-14T09:01:25.882Z,829.24
2019-02-14T09:02:25.896Z,829.17
2019-02-14T09:03:25.900Z,829.14
2019-02-14T09:04:25.918Z,829.17
2019-02-14T09:05:25.921Z,829.16
2019-02-14T09:06:25.935Z,829.12
2019-02-14T09:07:25.945Z,829.17
2019-02-14T09:08:25.953Z,829.19
2019-02-14T09:09:25.964Z,829.17
2019-02-14T09:10:25.978Z,829.15
2019-02-14T09:11:25.985Z,829.17
2019-02-14T09:12:25.995Z,829.19
2019-02-14T09:13:26.007Z,829.18
2019-02-14T09:14:26.021Z,829.20
2019-02-14T09:15:26.029Z,829.20
2019-02-14T09:16:26.039Z,829.19
2019-02-14T09:17:26.050Z,829.18
2019-02-14T09:18:26.063Z,829.20
2019-02-14T09:19:26.079Z,829.19
2019-02-14T09:20:26.081Z,829.21
2019-02-14T09:21:26.092Z,829.18
2019-02-14T09:22:26.107Z,829.19
2019-02-14T09:23:26.121Z,829.15
2019-02-14T09:24:26.126Z,829.16
2019-02-14T09:25:26.140Z,829.19
2019-02-14T09:26:26.151Z,829.21
2019-02-14T09:27:26.160Z,829.19
2019-02-14T09:28:26.177Z,829.21
2019-02-14T09:29:26.186Z,829.21
2019-02-14T09:30:26.194Z,829.24
2019-02-14T09:31:26.208Z,829.26
2019-02-14T09:32:26.215Z,829.23
2019-02-14T09:33:26.231Z,829.22
2019-02-14T09:34:26.238Z,829.22
2019-02-14T09:35:27.250Z,829.20
2019-02-14T09:36:26.264Z,829.21
2019-02-14T09:37:26.277Z,829.25
2019-02-14T09:38:26.287Z,829.21
2019-02-14T09:39:26.295Z,829.22
2019-02-14T09:40:26.306Z,829.21
2019-02-14T09:41:26.319Z,829.21
2019-02-14T09:42:26.332Z,829.19
2019-02-14T09:43:29.916Z,829.20
2019-02-14T09:44:26.362Z,829.23
2019-02-14T09:45:26.370Z,829.23
2019-02-14T09:46:26.378Z,829.26
2019-02-14T09:47:26.394Z,829.24
2019-02-14T09:48:26.424Z,829.24
2019-02-14T09:49:26.422Z,829.26
2019-02-14T09:50:26.434Z,829.28
2019-02-14T09:51:26.462Z,829.36
2019-02-14T09:52:26.454Z,829.29
2019-02-14T09:53:26.464Z,829.32
2019-02-14T09:54:26.486Z,829.37
2019-02-14T09:55:26.492Z,829.37
2019-02-14T09:56:26.501Z,829.32
2019-02-14T09:57:26.518Z,829.36
2019-02-14T09:58:26.528Z,829.32
2019-02-14T09:59:26.554Z,829.36
2019-02-14T10:00:26.570Z,829.37
2019-02-14T10:01:26.565Z,829.40
2019-02-14T10:02:26.583Z,829.41
2019-02-14T10:03:26.608Z,829.40
2019-02-14T10:04:26.606Z,829.44
2019-02-14T10:05:26.630Z,829.46
2019-02-14T10:07:26.628Z,829.44
2019-02-14T10:08:26.639Z,829.45
2019-02-14T10:09:26.674Z,829.44
2019-02-14T10:10:26.676Z,829.40
2019-02-14T10:11:26.679Z,829.41
2019-02-14T10:12:26.705Z,829.43
2019-02-14T10:13:26.711Z,829.42
2019-02-14T10:14:26.719Z,829.42
2019-02-14T10:15:26.732Z,829.42
2019-02-14T10:16:26.748Z,829.42
2019-02-14T10:17:26.761Z,829.40
2019-02-14T10:18:26.775Z,829.42
2019-02-14T10:19:28.649Z,829.45
2019-02-14T10:20:26.803Z,829.42
2019-02-14T10:21:26.816Z,829.44
2019-02-14T10:22:26.831Z,829.43
2019-02-14T10:23:26.846Z,829.44
2019-02-14T10:24:26.858Z,829.46
2019-02-14T10:25:26.874Z,829.47
2019-02-14T10:26:26.888Z,829.45
2019-02-14T10:27:26.902Z,829.48
2019-02-14T10:28:26.917Z,829.48
2019-02-14T10:29:26.930Z,829.51
2019-02-14T10:30:26.943Z,829.50
2019-02-14T10:31:26.958Z,829.51
2019-02-14T10:32:26.972Z,829.51
2019-02-14T10:33:26.988Z,829.49
2019-02-14T10:34:27.001Z,829.46
2019-02-14T10:35:27.017Z,829.48
2019-02-14T10:36:27.031Z,829.47
2019-02-14T10:37:27.045Z,829.47
2019-02-14T10:38:27.061Z,829.47
2019-02-14T10:39:27.076Z,829.48
2019-02-14T10:40:27.090Z,829.47
2019-02-14T10:41:29.194Z,829.48
2019-02-14T10:42:27.119Z,829.46
2019-02-14T10:43:27.134Z,829.46
2019-02-14T10:44:27.160Z,829.50
2019-02-14T10:45:27.164Z,829.46
2019-02-14T10:46:27.179Z,829.46
2019-02-14T10:47:27.196Z,829.49
2019-02-14T10:48:27.211Z,829.48
2019-02-14T10:49:27.226Z,829.48
2019-02-14T10:50:27.242Z,829.46
2019-02-14T10:51:27.263Z,829.53
2019-02-14T10:52:27.271Z,829.52
2019-02-14T10:53:27.285Z,829.51
2019-02-14T10:54:27.299Z,829.48
2019-02-14T10:55:27.321Z,829.47
2019-02-14T10:56:27.331Z,829.48
2019-02-14T10:57:27.348Z,829.50
2019-02-14T10:58:27.362Z,829.46
2019-02-14T10:59:27.377Z,829.49
2019-02-14T11:00:27.394Z,829.42
2019-02-14T11:01:27.466Z,829.47
2019-02-14T11:02:27.425Z,829.47
2019-02-14T11:03:27.441Z,829.47
2019-02-14T11:04:27.460Z,829.44
2019-02-14T11:05:27.473Z,829.43
2019-02-14T11:06:27.488Z,829.42
2019-02-14T11:07:27.504Z,829.39
2019-02-14T11:08:31.683Z,829.42
2019-02-14T11:09:27.537Z,829.39
2019-02-14T11:10:27.553Z,829.45
2019-02-14T11:11:27.570Z,829.39
2019-02-14T11:12:27.587Z,829.40
2019-02-14T11:13:27.603Z,829.43
2019-02-14T11:14:29.485Z,829.40
2019-02-14T11:15:27.630Z,829.36
2019-02-14T11:16:27.649Z,829.34
2019-02-14T11:17:27.663Z,829.31
2019-02-14T11:18:27.680Z,829.32
2019-02-14T11:19:27.697Z,829.32
2019-02-14T11:20:27.713Z,829.35
2019-02-14T11:21:27.727Z,829.28
2019-02-14T11:22:27.744Z,829.29
2019-02-14T11:23:27.760Z,829.29
2019-02-14T11:24:27.777Z,829.30
2019-02-14T11:25:27.794Z,829.27
2019-02-14T11:26:27.809Z,829.30
2019-02-14T11:27:27.827Z,829.26
2019-02-14T11:28:27.841Z,829.24
2019-02-14T11:29:27.857Z,829.24
2019-02-14T11:30:27.874Z,829.24
2019-02-14T11:31:27.889Z,829.26
2019-02-14T11:32:27.907Z,829.25
2019-02-14T11:33:27.923Z,829.22
2019-02-14T11:34:27.940Z,829.20
2019-02-14T11:35:27.956Z,829.22
2019-02-14T11:36:27.970Z,829.19
2019-02-14T11:37:27.987Z,829.20
2019-02-14T11:38:28.004Z,829.17
2019-02-14T11:39:28.019Z,829.19
2019-02-14T11:40:28.037Z,829.16
2019-02-14T11:41:28.052Z,829.17
2019-02-14T11:42:30.028Z,829.16
2019-02-14T11:43:28.086Z,829.15
2019-02-14T11:44:28.102Z,829.16
2019-02-14T11:45:28.120Z,829.15
2019-02-14T11:46:28.134Z,829.13
2019-02-14T11:47:28.152Z,829.17
2019-02-14T11:48:28.168Z,829.14
2019-02-14T11:49:28.183Z,829.17
2019-02-14T11:50:28.227Z,829.14
2019-02-14T11:51:28.242Z,829.12
2019-02-14T11:52:28.234Z,829.14
2019-02-14T11:53:29.394Z,829.16
2019-02-14T11:54:28.263Z,829.15
2019-02-14T11:55:28.281Z,829.15
2019-02-14T11:56:28.298Z,829.10
2019-02-14T11:57:28.315Z,829.14
2019-02-14T11:58:28.332Z,829.13
2019-02-14T11:59:28.346Z,829.14
2019-02-14T12:00:28.365Z,829.09
2019-02-14T12:01:28.417Z,829.11
2019-02-14T12:02:28.396Z,829.08
2019-02-14T12:03:28.414Z,829.07
2019-02-14T12:04:28.429Z,829.09
2019-02-14T12:05:28.448Z,829.07
2019-02-14T12:06:28.490Z,829.06
2019-02-14T12:07:28.489Z,829.05
2019-02-14T12:08:28.497Z,829.05
2019-02-14T12:09:28.516Z,829.03
2019-02-14T12:10:28.533Z,829.05
2019-02-14T12:11:28.547Z,829.03
2019-02-14T12:12:28.564Z,829.02
2019-02-14T12:13:28.580Z,829.01
2019-02-14T12:14:28.594Z,828.99
2019-02-14T12:15:28.613Z,829.04
2019-02-14T12:16:28.628Z,829.00
2019-02-14T12:17:28.647Z,829.00
2019-02-14T12:18:28.663Z,828.97
2019-02-14T12:19:28.679Z,828.96
2019-02-14T12:20:28.696Z,828.95
2019-02-14T12:21:28.711Z,828.98
2019-02-14T12:22:28.730Z,828.96
2019-02-14T12:23:28.750Z,828.98
2019-02-14T12:24:28.763Z,828.97
2019-02-14T12:25:28.802Z,828.95
2019-02-14T12:26:28.795Z,828.96
2019-02-14T12:27:28.814Z,828.94
2019-02-14T12:28:28.835Z,828.95
2019-02-14T12:29:28.848Z,828.97